sensor_id;sensor_type;location;lat;lon;timestamp;temperature;humidity
20349;DHT22;10332;50.208;18.988;2024-03-08T00:00:13;1.50;1.00
20349;DHT22;10332;50.208;18.988;2024-03-08T00:03:03;1.60;1.00
20349;DHT22;10332;50.208;18.988;2024-03-08T00:05:30;1.60;1.00
20349;DHT22;10332;50.208;18.988;2024-03-08T00:07:58;1.50;1.00
20349;DHT22;10332;50.208;18.988;2024-03-08T00:10:27;1.50;1.00
20349;DHT22;10332;50.208;18.988;2024-03-08T00:12:56;1.50;1.00
20349;DHT22;10332;50.208;18.988;2024-03-08T00:15:25;1.50;1.00
20349;DHT22;10332;50.208;18.988;2024-03-08T00:17:52;1.50;1.00
20349;DHT22;10332;50.208;18.988;2024-03-08T00:20:20;1.50;99.90
20349;DHT22;10332;50.208;18.988;2024-03-08T00:22:48;1.40;99.90
20349;DHT22;10332;50.208;18.988;2024-03-08T00:25:15;1.40;99.90
20349;DHT22;10332;50.208;18.988;2024-03-08T00:27:43;1.40;1.00
20349;DHT22;10332;50.208;18.988;2024-03-08T00:30:11;1.40;1.00
20349;DHT22;10332;50.208;18.988;2024-03-08T00:32:40;1.30;1.00
20349;DHT22;10332;50.208;18.988;2024-03-08T00:35:08;1.30;1.00
20349;DHT22;10332;50.208;18.988;2024-03-08T00:37:35;1.30;1.00
20349;DHT22;10332;50.208;18.988;2024-03-08T00:40:03;1.30;1.00
20349;DHT22;10332;50.208;18.988;2024-03-08T00:42:31;1.30;1.00
20349;DHT22;10332;50.208;18.988;2024-03-08T00:45:01;1.30;1.00
20349;DHT22;10332;50.208;18.988;2024-03-08T00:47:28;1.30;41.20
20349;DHT22;10332;50.208;18.988;2024-03-08T00:49:57;1.20;99.90
20349;DHT22;10332;50.208;18.988;2024-03-08T00:52:24;1.20;99.90
20349;DHT22;10332;50.208;18.988;2024-03-08T00:54:52;1.20;99.90
20349;DHT22;10332;50.208;18.988;2024-03-08T00:57:19;1.20;99.90
20349;DHT22;10332;50.208;18.988;2024-03-08T00:59:46;1.20;99.90
20349;DHT22;10332;50.208;18.988;2024-03-08T01:02:14;1.10;99.90
20349;DHT22;10332;50.208;18.988;2024-03-08T01:04:41;1.20;99.90
20349;DHT22;10332;50.208;18.988;2024-03-08T01:07:09;1.10;99.90
20349;DHT22;10332;50.208;18.988;2024-03-08T01:09:36;1.10;99.90
20349;DHT22;10332;50.208;18.988;2024-03-08T01:12:03;1.10;1.00
20349;DHT22;10332;50.208;18.988;2024-03-08T01:14:32;1.00;1.00
20349;DHT22;10332;50.208;18.988;2024-03-08T01:17:00;1.00;1.00
20349;DHT22;10332;50.208;18.988;2024-03-08T01:19:27;1.00;1.00
20349;DHT22;10332;50.208;18.988;2024-03-08T01:21:55;1.00;1.00
20349;DHT22;10332;50.208;18.988;2024-03-08T01:24:24;0.90;1.00
20349;DHT22;10332;50.208;18.988;2024-03-08T01:26:52;1.00;1.00
20349;DHT22;10332;50.208;18.988;2024-03-08T01:29:19;0.90;1.00
20349;DHT22;10332;50.208;18.988;2024-03-08T01:31:46;0.90;1.00
20349;DHT22;10332;50.208;18.988;2024-03-08T01:34:14;0.90;1.00
20349;DHT22;10332;50.208;18.988;2024-03-08T01:36:41;0.90;1.00
20349;DHT22;10332;50.208;18.988;2024-03-08T01:39:09;0.80;27.30
20349;DHT22;10332;50.208;18.988;2024-03-08T01:41:36;0.80;77.00
20349;DHT22;10332;50.208;18.988;2024-03-08T01:44:04;0.90;99.90
20349;DHT22;10332;50.208;18.988;2024-03-08T01:46:34;0.90;99.90
20349;DHT22;10332;50.208;18.988;2024-03-08T01:49:02;0.80;97.80
20349;DHT22;10332;50.208;18.988;2024-03-08T01:51:30;0.80;99.90
20349;DHT22;10332;50.208;18.988;2024-03-08T01:54:01;0.80;99.90
20349;DHT22;10332;50.208;18.988;2024-03-08T01:56:29;0.80;99.90
20349;DHT22;10332;50.208;18.988;2024-03-08T01:59:00;0.80;99.90
20349;DHT22;10332;50.208;18.988;2024-03-08T02:01:28;0.80;99.90
20349;DHT22;10332;50.208;18.988;2024-03-08T02:03:56;0.80;99.90
20349;DHT22;10332;50.208;18.988;2024-03-08T02:06:23;0.80;99.90
20349;DHT22;10332;50.208;18.988;2024-03-08T02:08:51;0.70;99.90
20349;DHT22;10332;50.208;18.988;2024-03-08T02:11:18;0.70;99.90
20349;DHT22;10332;50.208;18.988;2024-03-08T02:13:48;0.70;99.90
20349;DHT22;10332;50.208;18.988;2024-03-08T02:16:21;0.70;99.90
20349;DHT22;10332;50.208;18.988;2024-03-08T02:18:48;0.60;99.90
20349;DHT22;10332;50.208;18.988;2024-03-08T02:21:17;0.60;99.90
20349;DHT22;10332;50.208;18.988;2024-03-08T02:23:48;0.60;99.90
20349;DHT22;10332;50.208;18.988;2024-03-08T02:26:19;0.60;99.90
20349;DHT22;10332;50.208;18.988;2024-03-08T02:28:47;0.50;99.90
20349;DHT22;10332;50.208;18.988;2024-03-08T02:31:14;0.50;1.00
20349;DHT22;10332;50.208;18.988;2024-03-08T02:33:41;0.50;1.00
20349;DHT22;10332;50.208;18.988;2024-03-08T02:36:09;0.50;1.00
20349;DHT22;10332;50.208;18.988;2024-03-08T02:38:36;0.50;1.00
20349;DHT22;10332;50.208;18.988;2024-03-08T02:41:04;0.40;1.00
20349;DHT22;10332;50.208;18.988;2024-03-08T02:43:31;0.40;1.00
20349;DHT22;10332;50.208;18.988;2024-03-08T02:45:58;0.40;1.00
20349;DHT22;10332;50.208;18.988;2024-03-08T02:48:27;0.40;1.00
20349;DHT22;10332;50.208;18.988;2024-03-08T02:50:54;0.40;1.00
20349;DHT22;10332;50.208;18.988;2024-03-08T02:53:22;0.50;1.00
20349;DHT22;10332;50.208;18.988;2024-03-08T02:55:49;0.40;1.00
20349;DHT22;10332;50.208;18.988;2024-03-08T02:58:17;0.50;1.00
20349;DHT22;10332;50.208;18.988;2024-03-08T03:00:45;0.50;1.00
20349;DHT22;10332;50.208;18.988;2024-03-08T03:03:13;0.50;1.00
20349;DHT22;10332;50.208;18.988;2024-03-08T03:05:40;0.50;1.00
20349;DHT22;10332;50.208;18.988;2024-03-08T03:08:15;0.40;1.00
20349;DHT22;10332;50.208;18.988;2024-03-08T03:10:44;0.50;1.00
20349;DHT22;10332;50.208;18.988;2024-03-08T03:13:12;0.50;1.00
20349;DHT22;10332;50.208;18.988;2024-03-08T03:15:41;0.50;99.90
20349;DHT22;10332;50.208;18.988;2024-03-08T03:18:11;0.50;99.90
20349;DHT22;10332;50.208;18.988;2024-03-08T03:20:39;0.50;99.90
20349;DHT22;10332;50.208;18.988;2024-03-08T03:23:10;0.50;99.90
20349;DHT22;10332;50.208;18.988;2024-03-08T03:25:42;0.50;99.90
20349;DHT22;10332;50.208;18.988;2024-03-08T03:28:10;0.50;99.90
20349;DHT22;10332;50.208;18.988;2024-03-08T03:30:42;0.50;99.90
20349;DHT22;10332;50.208;18.988;2024-03-08T03:33:09;0.50;99.90
20349;DHT22;10332;50.208;18.988;2024-03-08T03:35:37;0.60;99.90
20349;DHT22;10332;50.208;18.988;2024-03-08T03:38:05;0.50;99.90
20349;DHT22;10332;50.208;18.988;2024-03-08T03:40:38;0.50;99.90
20349;DHT22;10332;50.208;18.988;2024-03-08T03:43:07;0.50;99.90
20349;DHT22;10332;50.208;18.988;2024-03-08T03:45:39;0.50;99.90
20349;DHT22;10332;50.208;18.988;2024-03-08T03:48:08;0.50;99.90
20349;DHT22;10332;50.208;18.988;2024-03-08T03:50:38;0.50;99.90
20349;DHT22;10332;50.208;18.988;2024-03-08T03:53:07;0.50;99.90
20349;DHT22;10332;50.208;18.988;2024-03-08T03:55:37;0.50;99.90
20349;DHT22;10332;50.208;18.988;2024-03-08T03:58:08;0.50;99.90
20349;DHT22;10332;50.208;18.988;2024-03-08T04:00:38;0.50;99.90
20349;DHT22;10332;50.208;18.988;2024-03-08T04:03:06;0.50;99.90
20349;DHT22;10332;50.208;18.988;2024-03-08T04:05:34;0.60;99.90
20349;DHT22;10332;50.208;18.988;2024-03-08T04:08:02;0.60;99.90
20349;DHT22;10332;50.208;18.988;2024-03-08T04:10:30;0.50;99.90
20349;DHT22;10332;50.208;18.988;2024-03-08T04:12:57;0.60;99.90
20349;DHT22;10332;50.208;18.988;2024-03-08T04:15:25;0.60;99.90
20349;DHT22;10332;50.208;18.988;2024-03-08T04:17:52;0.50;99.90
20349;DHT22;10332;50.208;18.988;2024-03-08T04:20:20;0.50;99.90
20349;DHT22;10332;50.208;18.988;2024-03-08T04:22:49;0.50;99.90
20349;DHT22;10332;50.208;18.988;2024-03-08T04:25:17;0.60;99.90
20349;DHT22;10332;50.208;18.988;2024-03-08T04:27:44;0.60;99.90
20349;DHT22;10332;50.208;18.988;2024-03-08T04:30:12;0.60;99.90
20349;DHT22;10332;50.208;18.988;2024-03-08T04:32:40;0.60;99.90
20349;DHT22;10332;50.208;18.988;2024-03-08T04:35:08;0.60;99.90
20349;DHT22;10332;50.208;18.988;2024-03-08T04:37:36;0.60;99.90
20349;DHT22;10332;50.208;18.988;2024-03-08T04:40:04;0.70;99.90
20349;DHT22;10332;50.208;18.988;2024-03-08T04:42:31;0.70;99.90
20349;DHT22;10332;50.208;18.988;2024-03-08T04:45:01;0.70;99.90
20349;DHT22;10332;50.208;18.988;2024-03-08T04:47:29;0.70;99.90
20349;DHT22;10332;50.208;18.988;2024-03-08T04:49:56;0.80;99.90
20349;DHT22;10332;50.208;18.988;2024-03-08T04:52:25;0.80;99.90
20349;DHT22;10332;50.208;18.988;2024-03-08T04:54:52;0.80;60.30
20349;DHT22;10332;50.208;18.988;2024-03-08T04:57:20;0.90;21.80
20349;DHT22;10332;50.208;18.988;2024-03-08T04:59:47;0.90;1.00
20349;DHT22;10332;50.208;18.988;2024-03-08T05:02:15;0.90;1.00
20349;DHT22;10332;50.208;18.988;2024-03-08T05:04:42;0.90;1.00
20349;DHT22;10332;50.208;18.988;2024-03-08T05:07:10;0.90;1.00
20349;DHT22;10332;50.208;18.988;2024-03-08T05:09:37;1.00;1.00
20349;DHT22;10332;50.208;18.988;2024-03-08T05:12:05;1.00;1.00
20349;DHT22;10332;50.208;18.988;2024-03-08T05:14:33;1.10;1.00
20349;DHT22;10332;50.208;18.988;2024-03-08T05:17:02;1.00;1.00
20349;DHT22;10332;50.208;18.988;2024-03-08T05:19:29;1.10;1.00
20349;DHT22;10332;50.208;18.988;2024-03-08T05:22:01;1.20;1.00
20349;DHT22;10332;50.208;18.988;2024-03-08T05:24:29;1.20;1.00
20349;DHT22;10332;50.208;18.988;2024-03-08T05:26:57;1.30;1.00
20349;DHT22;10332;50.208;18.988;2024-03-08T05:29:27;1.30;1.00
20349;DHT22;10332;50.208;18.988;2024-03-08T05:31:55;1.30;99.90
20349;DHT22;10332;50.208;18.988;2024-03-08T05:34:23;1.40;99.90
20349;DHT22;10332;50.208;18.988;2024-03-08T05:36:52;1.40;99.90
20349;DHT22;10332;50.208;18.988;2024-03-08T05:39:21;1.50;99.90
20349;DHT22;10332;50.208;18.988;2024-03-08T05:41:49;1.50;3.30
20349;DHT22;10332;50.208;18.988;2024-03-08T05:44:17;1.60;3.80
20349;DHT22;10332;50.208;18.988;2024-03-08T05:46:45;1.70;1.00
20349;DHT22;10332;50.208;18.988;2024-03-08T05:49:15;1.70;99.90
20349;DHT22;10332;50.208;18.988;2024-03-08T05:51:43;1.70;1.00
20349;DHT22;10332;50.208;18.988;2024-03-08T05:54:11;1.80;1.00
20349;DHT22;10332;50.208;18.988;2024-03-08T05:56:43;1.90;1.00
20349;DHT22;10332;50.208;18.988;2024-03-08T05:59:12;1.90;99.90
20349;DHT22;10332;50.208;18.988;2024-03-08T06:01:40;1.90;1.00
20349;DHT22;10332;50.208;18.988;2024-03-08T06:04:10;2.00;1.00
20349;DHT22;10332;50.208;18.988;2024-03-08T06:06:39;2.10;1.00
20349;DHT22;10332;50.208;18.988;2024-03-08T06:09:07;2.20;1.00
20349;DHT22;10332;50.208;18.988;2024-03-08T06:11:45;2.20;1.00
20349;DHT22;10332;50.208;18.988;2024-03-08T06:14:12;2.30;99.90
20349;DHT22;10332;50.208;18.988;2024-03-08T06:16:40;2.40;99.90
20349;DHT22;10332;50.208;18.988;2024-03-08T06:19:07;2.50;67.50
20349;DHT22;10332;50.208;18.988;2024-03-08T06:21:35;2.50;24.40
20349;DHT22;10332;50.208;18.988;2024-03-08T06:24:03;2.60;1.00
20349;DHT22;10332;50.208;18.988;2024-03-08T06:26:31;2.60;99.90
20349;DHT22;10332;50.208;18.988;2024-03-08T06:29:01;2.70;99.90
20349;DHT22;10332;50.208;18.988;2024-03-08T06:31:28;2.80;99.90
20349;DHT22;10332;50.208;18.988;2024-03-08T06:33:56;2.80;99.90
20349;DHT22;10332;50.208;18.988;2024-03-08T06:36:24;2.80;99.90
20349;DHT22;10332;50.208;18.988;2024-03-08T06:38:51;2.90;75.50
20349;DHT22;10332;50.208;18.988;2024-03-08T06:41:19;3.00;1.00
20349;DHT22;10332;50.208;18.988;2024-03-08T06:43:47;3.10;1.00
20349;DHT22;10332;50.208;18.988;2024-03-08T06:46:25;3.10;99.90
20349;DHT22;10332;50.208;18.988;2024-03-08T06:48:52;3.20;92.20
20349;DHT22;10332;50.208;18.988;2024-03-08T06:51:20;3.20;1.00
20349;DHT22;10332;50.208;18.988;2024-03-08T06:53:47;3.30;99.90
20349;DHT22;10332;50.208;18.988;2024-03-08T06:56:16;3.30;1.00
20349;DHT22;10332;50.208;18.988;2024-03-08T06:58:43;3.40;1.00
20349;DHT22;10332;50.208;18.988;2024-03-08T07:01:13;3.40;1.00
20349;DHT22;10332;50.208;18.988;2024-03-08T07:03:42;3.50;99.90
20349;DHT22;10332;50.208;18.988;2024-03-08T07:06:12;3.40;99.90
20349;DHT22;10332;50.208;18.988;2024-03-08T07:08:39;3.40;99.90
20349;DHT22;10332;50.208;18.988;2024-03-08T07:11:07;3.40;99.90
20349;DHT22;10332;50.208;18.988;2024-03-08T07:13:34;3.50;1.00
20349;DHT22;10332;50.208;18.988;2024-03-08T07:16:02;3.60;99.90
20349;DHT22;10332;50.208;18.988;2024-03-08T07:18:29;3.70;99.90
20349;DHT22;10332;50.208;18.988;2024-03-08T07:20:58;3.70;99.90
20349;DHT22;10332;50.208;18.988;2024-03-08T07:23:25;3.80;99.90
20349;DHT22;10332;50.208;18.988;2024-03-08T07:26:15;3.80;99.90
20349;DHT22;10332;50.208;18.988;2024-03-08T07:28:43;4.00;99.90
20349;DHT22;10332;50.208;18.988;2024-03-08T07:31:11;4.10;99.90
20349;DHT22;10332;50.208;18.988;2024-03-08T07:33:52;4.20;1.00
20349;DHT22;10332;50.208;18.988;2024-03-08T07:36:23;4.30;1.00
20349;DHT22;10332;50.208;18.988;2024-03-08T07:38:50;4.40;23.40
20349;DHT22;10332;50.208;18.988;2024-03-08T07:41:17;4.50;1.00
20349;DHT22;10332;50.208;18.988;2024-03-08T07:43:45;4.60;1.00
20349;DHT22;10332;50.208;18.988;2024-03-08T07:46:12;4.70;1.00
20349;DHT22;10332;50.208;18.988;2024-03-08T07:48:45;4.70;99.90
20349;DHT22;10332;50.208;18.988;2024-03-08T07:51:16;4.80;99.90
20349;DHT22;10332;50.208;18.988;2024-03-08T07:53:44;4.90;99.90
20349;DHT22;10332;50.208;18.988;2024-03-08T07:56:12;4.90;99.90
20349;DHT22;10332;50.208;18.988;2024-03-08T07:58:40;4.90;99.90
20349;DHT22;10332;50.208;18.988;2024-03-08T08:01:15;4.90;99.90
20349;DHT22;10332;50.208;18.988;2024-03-08T08:03:43;4.90;1.00
20349;DHT22;10332;50.208;18.988;2024-03-08T08:06:10;4.80;1.00
20349;DHT22;10332;50.208;18.988;2024-03-08T08:08:43;4.80;1.00
20349;DHT22;10332;50.208;18.988;2024-03-08T08:11:10;4.80;19.30
20349;DHT22;10332;50.208;18.988;2024-03-08T08:13:44;4.90;1.00
20349;DHT22;10332;50.208;18.988;2024-03-08T08:16:11;4.90;1.00
20349;DHT22;10332;50.208;18.988;2024-03-08T08:18:40;4.90;1.00
20349;DHT22;10332;50.208;18.988;2024-03-08T08:21:08;5.00;1.00
20349;DHT22;10332;50.208;18.988;2024-03-08T08:23:35;5.00;1.00
20349;DHT22;10332;50.208;18.988;2024-03-08T08:26:02;5.00;1.00
20349;DHT22;10332;50.208;18.988;2024-03-08T08:28:30;5.10;1.00
20349;DHT22;10332;50.208;18.988;2024-03-08T08:30:58;5.10;1.00
20349;DHT22;10332;50.208;18.988;2024-03-08T08:33:26;5.10;1.00
20349;DHT22;10332;50.208;18.988;2024-03-08T08:35:54;5.10;1.00
20349;DHT22;10332;50.208;18.988;2024-03-08T08:38:21;5.20;1.00
20349;DHT22;10332;50.208;18.988;2024-03-08T08:40:50;5.10;1.00
20349;DHT22;10332;50.208;18.988;2024-03-08T08:43:17;5.10;1.00
20349;DHT22;10332;50.208;18.988;2024-03-08T08:45:45;5.10;1.00
20349;DHT22;10332;50.208;18.988;2024-03-08T08:48:14;5.10;1.00
20349;DHT22;10332;50.208;18.988;2024-03-08T08:50:41;5.20;1.00
20349;DHT22;10332;50.208;18.988;2024-03-08T08:53:09;5.20;1.00
20349;DHT22;10332;50.208;18.988;2024-03-08T08:55:36;5.20;1.00
20349;DHT22;10332;50.208;18.988;2024-03-08T08:58:04;5.20;1.00
20349;DHT22;10332;50.208;18.988;2024-03-08T09:00:31;5.30;1.00
20349;DHT22;10332;50.208;18.988;2024-03-08T09:02:59;5.40;1.00
20349;DHT22;10332;50.208;18.988;2024-03-08T09:05:28;5.50;1.00
20349;DHT22;10332;50.208;18.988;2024-03-08T09:07:55;5.60;1.00
20349;DHT22;10332;50.208;18.988;2024-03-08T09:10:23;5.70;1.00
20349;DHT22;10332;50.208;18.988;2024-03-08T09:12:56;5.70;1.00
20349;DHT22;10332;50.208;18.988;2024-03-08T09:15:24;5.70;1.00
20349;DHT22;10332;50.208;18.988;2024-03-08T09:17:54;5.80;1.00
20349;DHT22;10332;50.208;18.988;2024-03-08T09:20:22;5.90;1.00
20349;DHT22;10332;50.208;18.988;2024-03-08T09:22:49;6.10;1.00
20349;DHT22;10332;50.208;18.988;2024-03-08T09:25:17;6.20;1.00
20349;DHT22;10332;50.208;18.988;2024-03-08T09:27:44;6.30;1.00
20349;DHT22;10332;50.208;18.988;2024-03-08T09:30:13;6.30;1.00
20349;DHT22;10332;50.208;18.988;2024-03-08T09:32:42;6.40;1.00
20349;DHT22;10332;50.208;18.988;2024-03-08T09:35:11;6.50;1.00
20349;DHT22;10332;50.208;18.988;2024-03-08T09:37:38;6.70;1.00
20349;DHT22;10332;50.208;18.988;2024-03-08T09:40:06;6.80;1.00
20349;DHT22;10332;50.208;18.988;2024-03-08T09:42:37;7.10;1.00
20349;DHT22;10332;50.208;18.988;2024-03-08T09:45:09;7.30;99.90
20349;DHT22;10332;50.208;18.988;2024-03-08T09:47:39;7.30;99.90
20349;DHT22;10332;50.208;18.988;2024-03-08T09:50:08;7.30;99.90
20349;DHT22;10332;50.208;18.988;2024-03-08T09:52:48;7.20;99.90
20349;DHT22;10332;50.208;18.988;2024-03-08T09:55:17;7.20;99.90
20349;DHT22;10332;50.208;18.988;2024-03-08T09:57:51;7.30;99.90
20349;DHT22;10332;50.208;18.988;2024-03-08T10:00:37;7.20;99.90
20349;DHT22;10332;50.208;18.988;2024-03-08T10:03:11;7.30;99.90
20349;DHT22;10332;50.208;18.988;2024-03-08T10:05:42;7.50;99.90
20349;DHT22;10332;50.208;18.988;2024-03-08T10:08:10;7.70;99.90
20349;DHT22;10332;50.208;18.988;2024-03-08T10:10:38;8.10;99.90
20349;DHT22;10332;50.208;18.988;2024-03-08T10:13:06;8.30;99.90
20349;DHT22;10332;50.208;18.988;2024-03-08T10:15:34;8.40;99.90
20349;DHT22;10332;50.208;18.988;2024-03-08T10:18:01;8.50;99.90
20349;DHT22;10332;50.208;18.988;2024-03-08T10:20:31;8.40;99.90
20349;DHT22;10332;50.208;18.988;2024-03-08T10:23:01;8.40;99.90
20349;DHT22;10332;50.208;18.988;2024-03-08T10:25:38;8.50;99.90
20349;DHT22;10332;50.208;18.988;2024-03-08T10:28:06;8.50;99.90
20349;DHT22;10332;50.208;18.988;2024-03-08T10:30:33;8.60;99.90
20349;DHT22;10332;50.208;18.988;2024-03-08T10:33:01;8.80;99.90
20349;DHT22;10332;50.208;18.988;2024-03-08T10:35:30;9.30;99.90
20349;DHT22;10332;50.208;18.988;2024-03-08T10:37:58;11.10;99.90
20349;DHT22;10332;50.208;18.988;2024-03-08T10:40:28;11.60;99.90
20349;DHT22;10332;50.208;18.988;2024-03-08T10:42:57;15.10;99.90
20349;DHT22;10332;50.208;18.988;2024-03-08T10:45:39;16.70;96.20
20349;DHT22;10332;50.208;18.988;2024-03-08T10:50:52;22.70;1.00
20349;DHT22;10332;50.208;18.988;2024-03-08T10:53:23;26.20;1.00
20349;DHT22;10332;50.208;18.988;2024-03-08T10:55:52;30.00;1.00
20349;DHT22;10332;50.208;18.988;2024-03-08T10:58:29;33.30;1.00
20349;DHT22;10332;50.208;18.988;2024-03-08T11:01:10;35.90;1.00
20349;DHT22;10332;50.208;18.988;2024-03-08T11:09:30;40.00;1.00
20349;DHT22;10332;50.208;18.988;2024-03-08T11:12:21;40.40;1.00
20349;DHT22;10332;50.208;18.988;2024-03-08T11:14:50;41.50;1.00
20349;DHT22;10332;50.208;18.988;2024-03-08T11:20:01;40.30;1.00
20349;DHT22;10332;50.208;18.988;2024-03-08T11:22:33;41.00;1.00
20349;DHT22;10332;50.208;18.988;2024-03-08T11:25:09;41.80;1.00
20349;DHT22;10332;50.208;18.988;2024-03-08T11:27:37;43.00;1.00
20349;DHT22;10332;50.208;18.988;2024-03-08T11:30:06;43.70;1.00
20349;DHT22;10332;50.208;18.988;2024-03-08T11:32:45;44.20;1.00
20349;DHT22;10332;50.208;18.988;2024-03-08T11:35:20;44.70;1.00
20349;DHT22;10332;50.208;18.988;2024-03-08T11:37:48;45.10;1.00
20349;DHT22;10332;50.208;18.988;2024-03-08T11:40:16;45.20;1.00
20349;DHT22;10332;50.208;18.988;2024-03-08T11:42:45;45.20;1.00
20349;DHT22;10332;50.208;18.988;2024-03-08T11:45:16;45.20;1.00
20349;DHT22;10332;50.208;18.988;2024-03-08T11:47:45;45.40;1.00
20349;DHT22;10332;50.208;18.988;2024-03-08T11:50:14;45.60;1.00
20349;DHT22;10332;50.208;18.988;2024-03-08T11:52:43;45.60;1.00
20349;DHT22;10332;50.208;18.988;2024-03-08T11:55:11;45.50;1.00
20349;DHT22;10332;50.208;18.988;2024-03-08T11:57:40;45.50;1.00
20349;DHT22;10332;50.208;18.988;2024-03-08T12:00:19;46.00;1.00
20349;DHT22;10332;50.208;18.988;2024-03-08T12:03:04;46.40;1.00
20349;DHT22;10332;50.208;18.988;2024-03-08T12:05:32;46.50;1.00
20349;DHT22;10332;50.208;18.988;2024-03-08T12:08:03;46.70;1.00
20349;DHT22;10332;50.208;18.988;2024-03-08T12:10:34;46.60;1.00
20349;DHT22;10332;50.208;18.988;2024-03-08T12:13:02;46.70;1.00
20349;DHT22;10332;50.208;18.988;2024-03-08T12:15:39;46.90;1.00
20349;DHT22;10332;50.208;18.988;2024-03-08T12:18:07;46.80;1.00
20349;DHT22;10332;50.208;18.988;2024-03-08T12:20:34;46.70;1.00
20349;DHT22;10332;50.208;18.988;2024-03-08T12:23:02;46.80;1.00
20349;DHT22;10332;50.208;18.988;2024-03-08T12:25:33;46.90;1.00
20349;DHT22;10332;50.208;18.988;2024-03-08T12:28:13;47.20;1.00
20349;DHT22;10332;50.208;18.988;2024-03-08T12:30:49;47.10;1.00
20349;DHT22;10332;50.208;18.988;2024-03-08T12:33:18;47.20;1.00
20349;DHT22;10332;50.208;18.988;2024-03-08T12:35:52;46.90;1.00
20349;DHT22;10332;50.208;18.988;2024-03-08T12:38:28;46.70;1.00
20349;DHT22;10332;50.208;18.988;2024-03-08T12:40:56;46.40;1.00
20349;DHT22;10332;50.208;18.988;2024-03-08T12:43:25;46.00;1.00
20349;DHT22;10332;50.208;18.988;2024-03-08T12:45:53;45.80;1.00
20349;DHT22;10332;50.208;18.988;2024-03-08T12:48:21;45.70;1.00
20349;DHT22;10332;50.208;18.988;2024-03-08T12:50:49;45.80;1.00
20349;DHT22;10332;50.208;18.988;2024-03-08T12:53:18;45.90;1.00
20349;DHT22;10332;50.208;18.988;2024-03-08T12:55:45;45.90;1.00
20349;DHT22;10332;50.208;18.988;2024-03-08T12:58:13;46.00;1.00
20349;DHT22;10332;50.208;18.988;2024-03-08T13:00:40;46.20;1.00
20349;DHT22;10332;50.208;18.988;2024-03-08T13:03:10;46.10;1.00
20349;DHT22;10332;50.208;18.988;2024-03-08T13:05:38;45.90;1.00
20349;DHT22;10332;50.208;18.988;2024-03-08T13:08:10;45.80;1.00
20349;DHT22;10332;50.208;18.988;2024-03-08T13:10:40;45.60;1.00
20349;DHT22;10332;50.208;18.988;2024-03-08T13:13:11;45.60;1.00
20349;DHT22;10332;50.208;18.988;2024-03-08T13:15:42;45.50;1.00
20349;DHT22;10332;50.208;18.988;2024-03-08T13:18:10;45.60;1.00
20349;DHT22;10332;50.208;18.988;2024-03-08T13:20:38;45.60;1.00
20349;DHT22;10332;50.208;18.988;2024-03-08T13:23:14;45.70;1.00
20349;DHT22;10332;50.208;18.988;2024-03-08T13:25:41;45.60;1.00
20349;DHT22;10332;50.208;18.988;2024-03-08T13:28:09;45.50;1.00
20349;DHT22;10332;50.208;18.988;2024-03-08T13:30:38;45.30;1.00
20349;DHT22;10332;50.208;18.988;2024-03-08T13:33:05;45.10;1.00
20349;DHT22;10332;50.208;18.988;2024-03-08T13:35:34;44.80;1.00
20349;DHT22;10332;50.208;18.988;2024-03-08T13:38:02;44.70;1.00
20349;DHT22;10332;50.208;18.988;2024-03-08T13:40:32;44.50;1.00
20349;DHT22;10332;50.208;18.988;2024-03-08T13:42:59;44.50;1.00
20349;DHT22;10332;50.208;18.988;2024-03-08T13:45:28;44.70;1.00
20349;DHT22;10332;50.208;18.988;2024-03-08T13:47:56;44.40;1.00
20349;DHT22;10332;50.208;18.988;2024-03-08T13:50:23;43.90;1.00
20349;DHT22;10332;50.208;18.988;2024-03-08T13:52:53;43.70;1.00
20349;DHT22;10332;50.208;18.988;2024-03-08T13:55:23;43.40;1.00
20349;DHT22;10332;50.208;18.988;2024-03-08T13:57:53;43.60;1.00
20349;DHT22;10332;50.208;18.988;2024-03-08T14:00:20;43.60;1.00
20349;DHT22;10332;50.208;18.988;2024-03-08T14:02:50;43.40;1.00
20349;DHT22;10332;50.208;18.988;2024-03-08T14:05:17;43.20;1.00
20349;DHT22;10332;50.208;18.988;2024-03-08T14:07:47;42.70;1.00
20349;DHT22;10332;50.208;18.988;2024-03-08T14:10:17;42.50;1.00
20349;DHT22;10332;50.208;18.988;2024-03-08T14:12:48;42.60;1.00
20349;DHT22;10332;50.208;18.988;2024-03-08T14:15:17;42.20;1.00
20349;DHT22;10332;50.208;18.988;2024-03-08T14:17:51;41.50;1.00
20349;DHT22;10332;50.208;18.988;2024-03-08T14:20:19;41.30;1.00
20349;DHT22;10332;50.208;18.988;2024-03-08T14:22:46;41.00;1.00
20349;DHT22;10332;50.208;18.988;2024-03-08T14:25:13;41.30;1.00
20349;DHT22;10332;50.208;18.988;2024-03-08T14:27:46;41.00;1.00
20349;DHT22;10332;50.208;18.988;2024-03-08T14:30:13;40.70;1.00
20349;DHT22;10332;50.208;18.988;2024-03-08T14:32:40;40.30;1.00
20349;DHT22;10332;50.208;18.988;2024-03-08T14:35:08;39.00;1.00
20349;DHT22;10332;50.208;18.988;2024-03-08T14:37:38;38.30;1.00
20349;DHT22;10332;50.208;18.988;2024-03-08T14:40:06;38.10;1.00
20349;DHT22;10332;50.208;18.988;2024-03-08T14:42:36;37.90;1.00
20349;DHT22;10332;50.208;18.988;2024-03-08T14:45:03;37.70;1.00
20349;DHT22;10332;50.208;18.988;2024-03-08T14:47:31;37.50;1.00
20349;DHT22;10332;50.208;18.988;2024-03-08T14:49:58;37.60;1.00
20349;DHT22;10332;50.208;18.988;2024-03-08T14:52:26;38.10;1.00
20349;DHT22;10332;50.208;18.988;2024-03-08T14:54:56;38.10;1.00
20349;DHT22;10332;50.208;18.988;2024-03-08T14:57:25;38.00;1.00
20349;DHT22;10332;50.208;18.988;2024-03-08T14:59:53;37.90;1.00
20349;DHT22;10332;50.208;18.988;2024-03-08T15:02:20;37.50;1.00
20349;DHT22;10332;50.208;18.988;2024-03-08T15:04:49;37.10;1.00
20349;DHT22;10332;50.208;18.988;2024-03-08T15:07:28;36.70;1.00
20349;DHT22;10332;50.208;18.988;2024-03-08T15:09:58;36.10;1.00
20349;DHT22;10332;50.208;18.988;2024-03-08T15:12:25;35.60;1.00
20349;DHT22;10332;50.208;18.988;2024-03-08T15:14:56;34.80;1.00
20349;DHT22;10332;50.208;18.988;2024-03-08T15:17:23;34.20;1.00
20349;DHT22;10332;50.208;18.988;2024-03-08T15:19:51;32.60;1.00
20349;DHT22;10332;50.208;18.988;2024-03-08T15:22:21;30.70;1.00
20349;DHT22;10332;50.208;18.988;2024-03-08T15:24:50;28.70;1.00
20349;DHT22;10332;50.208;18.988;2024-03-08T15:27:18;27.00;1.00
20349;DHT22;10332;50.208;18.988;2024-03-08T15:29:46;25.30;1.00
20349;DHT22;10332;50.208;18.988;2024-03-08T15:32:16;23.90;1.00
20349;DHT22;10332;50.208;18.988;2024-03-08T15:34:49;22.50;1.00
20349;DHT22;10332;50.208;18.988;2024-03-08T15:37:17;21.10;1.00
20349;DHT22;10332;50.208;18.988;2024-03-08T15:39:44;20.00;1.00
20349;DHT22;10332;50.208;18.988;2024-03-08T15:42:12;19.10;1.00
20349;DHT22;10332;50.208;18.988;2024-03-08T15:44:40;18.40;1.00
20349;DHT22;10332;50.208;18.988;2024-03-08T15:47:10;17.70;1.00
20349;DHT22;10332;50.208;18.988;2024-03-08T15:49:38;17.00;1.00
20349;DHT22;10332;50.208;18.988;2024-03-08T15:52:06;16.50;1.00
20349;DHT22;10332;50.208;18.988;2024-03-08T15:54:33;16.00;1.00
20349;DHT22;10332;50.208;18.988;2024-03-08T15:57:02;15.50;1.00